Time;durP1;ratioP1;P1;durP2;ratioP2;P2;SDS_P1;SDS_P2;PMS_P1;PMS_P2;Temp;Humidity;BMP_temperature;BMP_pressure;BME280_temperature;BME280_humidity;BME280_pressure;Samples;Min_cycle;Max_cycle;Signal;HPM_P1;HPM_P2
2022/10/14 00:01:15;;;;;;;62.00;34.30;;;;;;;-145.18;100.00;46654.53;6241576;23;20058;-68
2022/10/14 00:03:41;;;;;;;62.10;35.97;;;;;;;-145.18;100.00;46660.41;6243546;23;20028;-69
2022/10/14 00:06:10;;;;;;;73.17;39.77;;;;;;;-145.18;100.00;46654.53;6243544;23;19996;-69
2022/10/14 00:08:35;;;;;;;64.53;38.97;;;;;;;-145.18;100.00;46660.41;6244235;23;20027;-68
2022/10/14 00:11:05;;;;;;;64.33;37.67;;;;;;;-145.18;100.00;46652.59;6243490;23;20429;-68
2022/10/14 00:13:31;;;;;;;64.63;36.80;;;;;;;-145.18;100.00;46652.59;6244963;23;20008;-68
2022/10/14 00:15:57;;;;;;;62.60;37.83;;;;;;;-145.18;100.00;46654.53;6243296;23;20010;-69
2022/10/14 00:18:22;;;;;;;66.27;37.37;;;;;;;-145.18;100.00;46652.59;6244396;23;20008;-68
2022/10/14 00:20:59;;;;;;;64.03;37.33;;;;;;;-145.18;100.00;46662.34;6243577;23;20043;-68
2022/10/14 00:23:25;;;;;;;62.60;36.27;;;;;;;-145.18;100.00;46654.53;6243880;23;20119;-68
2022/10/14 00:25:52;;;;;;;68.43;38.00;;;;;;;-145.18;100.00;46656.50;6243679;23;20004;-68
2022/10/14 00:28:17;;;;;;;60.10;36.50;;;;;;;-145.18;100.00;46656.50;6243426;23;20039;-68
2022/10/14 00:30:53;;;;;;;55.70;35.33;;;;;;;-145.18;100.00;46654.53;6243388;23;20004;-68
2022/10/14 00:33:18;;;;;;;58.10;33.72;;;;;;;-145.18;100.00;46660.41;6243347;23;20089;-68
2022/10/14 00:35:55;;;;;;;54.70;34.37;;;;;;;-145.18;100.00;46658.44;6243589;23;20008;-68
2022/10/14 00:38:21;;;;;;;55.07;34.67;;;;;;;-145.18;100.00;46654.53;6243641;23;20003;-68
2022/10/14 00:40:46;;;;;;;62.70;38.13;;;;;;;-145.18;100.00;46656.50;6243739;23;20012;-69
2022/10/14 00:43:13;;;;;;;71.27;40.97;;;;;;;-145.18;100.00;46662.34;6243344;23;20103;-68
2022/10/14 00:45:38;;;;;;;72.73;41.03;;;;;;;-145.18;100.00;46652.59;6243368;23;20092;-68
2022/10/14 00:48:05;;;;;;;73.57;44.37;;;;;;;-145.18;100.00;46656.50;6243468;23;20067;-69
2022/10/14 00:50:31;;;;;;;79.47;43.17;;;;;;;-145.18;100.00;46650.63;6243718;23;20004;-69
2022/10/14 00:52:57;;;;;;;79.93;45.73;;;;;;;-145.18;100.00;46652.59;6243520;23;20012;-69
2022/10/14 00:55:24;;;;;;;92.13;45.53;;;;;;;-145.18;100.00;46648.69;6242943;23;20015;-69
2022/10/14 00:57:49;;;;;;;92.97;47.80;;;;;;;-145.18;100.00;46652.59;6243812;23;20008;-69
2022/10/14 01:00:18;;;;;;;95.57;49.03;;;;;;;-145.18;100.00;46654.53;6243214;23;20081;-69
2022/10/14 01:02:43;;;;;;;100.77;49.13;;;;;;;-145.18;100.00;46658.44;6243600;23;20012;-69
2022/10/14 01:05:12;;;;;;;104.20;52.13;;;;;;;-145.18;100.00;46656.50;6242712;23;20024;-69
2022/10/14 01:07:58;;;;;;;111.40;50.67;;;;;;;-145.18;100.00;46654.53;6242122;23;20018;-69
2022/10/14 01:10:48;;;;;;;101.25;49.97;;;;;;;-145.18;100.00;46652.59;6243224;23;20491;-69
2022/10/14 01:13:20;;;;;;;96.70;50.70;;;;;;;-145.18;100.00;46654.53;6243201;23;20079;-69
2022/10/14 01:15:55;;;;;;;112.37;54.33;;;;;;;-145.18;100.00;46650.63;6241614;23;20386;-68
2022/10/14 01:18:41;;;;;;;117.53;53.20;;;;;;;-145.18;100.00;46648.69;6242869;23;20027;-69
2022/10/14 01:21:25;;;;;;;114.83;52.50;;;;;;;-145.18;100.00;46652.59;6242762;23;20516;-69
2022/10/14 01:24:06;;;;;;;120.00;54.13;;;;;;;-145.18;100.00;46648.69;6243720;23;20441;-69
2022/10/14 01:27:02;;;;;;;122.07;55.50;;;;;;;-145.18;100.00;46650.63;6243450;23;20432;-69
2022/10/14 01:29:52;;;;;;;123.40;56.00;;;;;;;-145.18;100.00;46650.63;6243016;23;20008;-69
2022/10/14 01:32:30;;;;;;;127.23;54.70;;;;;;;-145.18;100.00;46650.63;6243082;23;20004;-69
2022/10/14 01:35:15;;;;;;;136.60;55.47;;;;;;;-145.18;100.00;46646.72;6243188;23;20476;-69
2022/10/14 01:37:49;;;;;;;140.27;56.87;;;;;;;-145.18;100.00;46654.53;6243295;23;20011;-69
2022/10/14 01:40:23;;;;;;;135.90;56.53;;;;;;;-145.18;100.00;46650.63;6242872;23;20000;-69
2022/10/14 01:42:50;;;;;;;146.17;57.70;;;;;;;-145.18;100.00;46646.72;6243084;23;20028;-69
2022/10/14 01:45:21;;;;;;;153.23;60.33;;;;;;;-145.18;100.00;46644.78;6242794;23;20421;-69
2022/10/14 01:47:52;;;;;;;142.30;57.97;;;;;;;-145.18;100.00;46654.53;6243127;23;20015;-69
2022/10/14 01:50:22;;;;;;;147.80;57.30;;;;;;;-145.18;100.00;46640.88;6242695;23;20245;-68
2022/10/14 01:52:57;;;;;;;140.47;56.27;;;;;;;-145.18;100.00;46646.72;6242869;23;20012;-69
2022/10/14 01:55:26;;;;;;;143.13;56.07;;;;;;;-145.18;100.00;46644.78;6242442;23;20023;-69
2022/10/14 01:57:56;;;;;;;156.00;60.23;;;;;;;-145.18;100.00;46646.72;6243102;23;20376;-69
2022/10/14 02:00:22;;;;;;;143.57;56.80;;;;;;;-145.18;100.00;46644.78;6242177;23;20002;-69
2022/10/14 02:02:47;;;;;;;144.17;56.83;;;;;;;-145.18;100.00;46640.88;6243267;23;20012;-69
2022/10/14 02:05:33;;;;;;;149.93;58.67;;;;;;;-145.18;100.00;46640.88;6242899;23;20008;-69
2022/10/14 02:08:39;;;;;;;142.63;53.50;;;;;;;-145.18;100.00;46644.78;6243133;23;20356;-69
2022/10/14 02:11:15;;;;;;;131.88;52.55;;;;;;;-145.18;100.00;46640.88;6215826;23;20007;-69
2022/10/14 02:14:07;;;;;;;143.63;53.33;;;;;;;-145.18;100.00;46635.00;6242858;23;20107;-69
2022/10/14 02:16:33;;;;;;;132.70;52.37;;;;;;;-145.18;100.00;46638.91;6242533;23;20447;-69
2022/10/14 02:19:12;;;;;;;143.97;56.90;;;;;;;-145.18;100.00;46644.78;6243033;23;20004;-69
2022/10/14 02:21:40;;;;;;;135.07;53.90;;;;;;;-145.18;100.00;46640.88;6242460;23;20012;-69
2022/10/14 02:24:17;;;;;;;132.27;53.37;;;;;;;-145.18;100.00;46638.91;6242445;23;20083;-69
2022/10/14 02:26:44;;;;;;;130.17;52.50;;;;;;;-145.18;100.00;46635.00;6241918;23;20012;-69
2022/10/14 02:29:11;;;;;;;119.57;51.57;;;;;;;-145.18;100.00;46638.91;6242835;23;20499;-69
2022/10/14 02:31:38;;;;;;;129.73;53.37;;;;;;;-145.18;100.00;46636.94;6242545;23;20430;-69
2022/10/14 02:34:09;;;;;;;123.13;50.10;;;;;;;-145.18;100.00;46638.91;6242470;23;20000;-69
2022/10/14 02:36:35;;;;;;;126.07;51.10;;;;;;;-145.18;100.00;46635.00;6242564;23;20429;-69
2022/10/14 02:39:02;;;;;;;135.53;53.77;;;;;;;-145.18;100.00;46638.91;6242608;23;20035;-69
2022/10/14 02:41:33;;;;;;;131.73;52.83;;;;;;;-145.18;100.00;46636.94;6241957;23;20441;-69
2022/10/14 02:43:58;;;;;;;125.83;52.67;;;;;;;-145.18;100.00;46638.91;6242867;23;20004;-69
2022/10/14 02:46:23;;;;;;;128.70;51.13;;;;;;;-145.18;100.00;46635.00;6242433;23;20015;-69
2022/10/14 02:48:49;;;;;;;125.97;52.07;;;;;;;-145.18;100.00;46636.94;6242413;23;20054;-69
2022/10/14 02:51:15;;;;;;;113.83;50.20;;;;;;;-145.18;100.00;46635.00;6242457;23;20054;-69
2022/10/14 02:53:41;;;;;;;120.27;50.80;;;;;;;-145.18;100.00;46638.91;6242633;23;20356;-69
2022/10/14 02:56:07;;;;;;;128.27;49.33;;;;;;;-145.18;100.00;46636.94;6242112;23;20500;-69
2022/10/14 02:58:32;;;;;;;117.63;49.37;;;;;;;-145.18;100.00;46635.00;6242361;23;20004;-69
2022/10/14 03:03:33;;;;;;;118.28;50.08;;;;;;;-145.18;100.00;46636.94;6197043;22;20020;-67
2022/10/14 03:05:59;;;;;;;112.30;45.33;;;;;;;-145.18;100.00;46631.09;6212554;23;20013;-67
2022/10/14 03:08:24;;;;;;;111.97;47.53;;;;;;;-145.18;100.00;46635.00;6211917;23;20034;-67
2022/10/14 03:10:49;;;;;;;115.43;45.47;;;;;;;-145.18;100.00;46633.06;6212201;23;20020;-67
2022/10/14 03:13:15;;;;;;;112.97;45.63;;;;;;;-145.18;100.00;46635.00;6212014;23;20019;-67
2022/10/14 03:15:40;;;;;;;106.97;46.20;;;;;;;-145.18;100.00;46635.00;6212433;23;20009;-67
2022/10/14 03:18:06;;;;;;;135.17;48.30;;;;;;;-145.18;100.00;46635.00;6212240;23;20341;-68
2022/10/14 03:20:32;;;;;;;116.37;48.10;;;;;;;-145.18;100.00;46636.94;6212443;23;20013;-68
2022/10/14 03:22:57;;;;;;;117.57;48.73;;;;;;;-145.18;100.00;46636.94;6211678;23;20012;-67
2022/10/14 03:25:23;;;;;;;113.60;44.50;;;;;;;-145.18;100.00;46631.09;6212592;23;20031;-68
2022/10/14 03:27:48;;;;;;;127.40;48.93;;;;;;;-145.18;100.00;46631.09;6210377;23;20078;-68
2022/10/14 03:30:14;;;;;;;118.13;46.43;;;;;;;-145.18;100.00;46633.06;6212776;23;20017;-68
2022/10/14 03:32:39;;;;;;;113.00;44.87;;;;;;;-145.18;100.00;46635.00;6211952;23;20011;-68
2022/10/14 03:35:05;;;;;;;105.20;44.60;;;;;;;-145.18;100.00;46631.09;6212482;23;20092;-67
2022/10/14 03:37:30;;;;;;;109.07;44.60;;;;;;;-145.18;100.00;46633.06;6211970;23;20005;-67
2022/10/14 03:39:56;;;;;;;102.90;45.50;;;;;;;-145.18;100.00;46631.09;6214190;23;20017;-68
2022/10/14 03:42:21;;;;;;;104.43;44.80;;;;;;;-145.18;100.00;46633.06;6214078;23;20012;-68
2022/10/14 03:44:46;;;;;;;102.47;43.70;;;;;;;-145.18;100.00;46631.09;6214147;23;20337;-68
2022/10/14 03:47:12;;;;;;;107.87;44.83;;;;;;;-145.18;100.00;46638.91;6213937;23;20039;-68
2022/10/14 03:49:37;;;;;;;106.33;44.53;;;;;;;-145.18;100.00;46633.06;6214194;23;20031;-67
2022/10/14 03:52:03;;;;;;;103.67;43.27;;;;;;;-145.18;100.00;46635.00;6213910;23;20039;-68
2022/10/14 03:54:28;;;;;;;94.77;42.03;;;;;;;-145.18;100.00;46631.09;6214389;23;20052;-68
2022/10/14 03:56:54;;;;;;;98.83;41.63;;;;;;;-145.18;100.00;46629.13;6213834;23;20005;-68
2022/10/14 03:59:19;;;;;;;94.47;40.33;;;;;;;-145.18;100.00;46631.09;6213640;23;20012;-68
2022/10/14 04:01:45;;;;;;;94.80;41.87;;;;;;;-145.18;100.00;46627.19;6187211;23;20160;-68
2022/10/14 04:04:10;;;;;;;89.03;40.67;;;;;;;-145.18;100.00;46629.13;6190386;23;20040;-67
2022/10/14 04:06:36;;;;;;;99.30;43.10;;;;;;;-145.18;100.00;46625.22;6184165;23;20012;-67
2022/10/14 04:09:02;;;;;;;88.50;40.73;;;;;;;-145.18;100.00;46629.13;6183173;23;20005;-67
2022/10/14 04:11:28;;;;;;;92.50;42.13;;;;;;;-145.18;100.00;46625.22;6183692;23;20020;-67
2022/10/14 04:13:57;;;;;;;85.10;41.03;;;;;;;-145.18;100.00;46629.13;6183155;23;20048;-67
2022/10/14 04:16:22;;;;;;;92.23;42.03;;;;;;;-145.18;100.00;46627.19;6183725;23;20125;-69
2022/10/14 04:18:48;;;;;;;95.83;42.33;;;;;;;-145.18;100.00;46625.22;6182561;23;20426;-68
2022/10/14 04:21:13;;;;;;;95.50;41.13;;;;;;;-145.18;100.00;46627.19;6183562;23;20378;-68
2022/10/14 04:23:38;;;;;;;92.93;41.80;;;;;;;-145.18;100.00;46629.13;6182061;23;20330;-68
2022/10/14 04:26:08;;;;;;;92.90;42.03;;;;;;;-145.18;100.00;46631.09;6182629;23;20008;-68
2022/10/14 04:28:34;;;;;;;95.87;42.20;;;;;;;-145.18;100.00;46633.06;6182884;23;20040;-68
2022/10/14 04:31:00;;;;;;;90.20;39.83;;;;;;;-145.18;100.00;46629.13;6182878;23;20005;-68
2022/10/14 04:33:26;;;;;;;83.93;38.33;;;;;;;-145.18;100.00;46633.06;6182993;23;20056;-68
2022/10/14 04:36:04;;;;;;;93.83;40.40;;;;;;;-145.18;100.00;46633.06;6182147;23;20013;-69
2022/10/14 04:38:29;;;;;;;93.17;40.33;;;;;;;-145.18;100.00;46631.09;6182901;23;20005;-69
2022/10/14 04:40:55;;;;;;;94.87;39.20;;;;;;;-145.18;100.00;46635.00;6180847;23;20434;-69
2022/10/14 04:43:21;;;;;;;84.33;36.17;;;;;;;-145.18;100.00;46640.88;6182656;23;20005;-69
2022/10/14 04:45:47;;;;;;;90.37;37.00;;;;;;;-145.18;100.00;46636.94;6182885;23;20019;-68
2022/10/14 04:48:13;;;;;;;83.57;35.03;;;;;;;-145.18;100.00;46638.91;6182536;23;20008;-68
2022/10/14 04:50:39;;;;;;;85.00;37.93;;;;;;;-145.18;100.00;46638.91;6180152;23;20012;-69
2022/10/14 04:53:04;;;;;;;85.80;36.60;;;;;;;-145.18;100.00;46642.81;6181652;23;20009;-69
2022/10/14 04:55:30;;;;;;;81.87;36.03;;;;;;;-145.18;100.00;46642.81;6183381;23;20468;-68
2022/10/14 04:57:55;;;;;;;85.80;36.50;;;;;;;-145.18;100.00;46648.69;6182963;23;20005;-69
2022/10/14 05:00:21;;;;;;;80.10;35.23;;;;;;;-145.18;100.00;46646.72;6183841;23;20013;-68
2022/10/14 05:02:46;;;;;;;78.23;35.13;;;;;;;-145.18;100.00;46648.69;6182580;23;20025;-68
2022/10/14 05:05:13;;;;;;;79.10;33.23;;;;;;;-145.18;100.00;46652.59;6183958;23;20017;-69
2022/10/14 05:07:39;;;;;;;75.97;32.47;;;;;;;-145.18;100.00;46648.69;6183010;23;20032;-68
2022/10/14 05:10:06;;;;;;;79.63;34.33;;;;;;;-145.18;100.00;46656.50;6183802;23;20016;-68
2022/10/14 05:12:32;;;;;;;85.33;34.23;;;;;;;-145.18;100.00;46656.50;6181632;23;20017;-68
2022/10/14 05:14:58;;;;;;;80.73;33.10;;;;;;;-145.18;100.00;46656.50;6182108;23;20445;-68
2022/10/14 05:17:23;;;;;;;88.77;36.37;;;;;;;-145.18;100.00;46658.44;6154864;23;20001;-68
2022/10/14 05:19:48;;;;;;;98.87;37.47;;;;;;;-145.18;100.00;46658.44;6182985;23;20039;-68
2022/10/14 05:22:14;;;;;;;91.30;38.17;;;;;;;-145.18;100.00;46658.44;6182489;23;20013;-68
2022/10/14 05:24:39;;;;;;;103.40;38.77;;;;;;;-145.18;100.00;46658.44;6155841;23;20020;-68
2022/10/14 05:27:05;;;;;;;91.77;37.53;;;;;;;-145.18;100.00;46664.31;6183581;23;20016;-71
2022/10/14 05:29:30;;;;;;;90.70;36.57;;;;;;;-145.18;100.00;46662.34;6182985;23;20015;-68
2022/10/14 05:31:56;;;;;;;80.73;33.33;;;;;;;-145.18;100.00;46660.41;6183410;23;20087;-69
2022/10/14 05:34:21;;;;;;;92.70;36.37;;;;;;;-145.18;100.00;46664.31;6182662;23;20438;-71
2022/10/14 05:36:46;;;;;;;78.30;33.40;;;;;;;-145.18;100.00;46668.22;6183149;23;20016;-71
2022/10/14 05:39:12;;;;;;;73.87;32.70;;;;;;;-145.18;100.00;46668.22;6182803;23;20016;-71
2022/10/14 05:41:37;;;;;;;86.13;34.70;;;;;;;-145.18;100.00;46664.31;6183312;23;20020;-71
2022/10/14 05:44:03;;;;;;;88.47;33.77;;;;;;;-145.18;100.00;46666.25;6182624;23;20019;-72
2022/10/14 05:46:29;;;;;;;76.87;32.93;;;;;;;-145.18;100.00;46672.13;6181241;23;20009;-72
2022/10/14 05:48:55;;;;;;;83.43;34.43;;;;;;;-145.18;100.00;46664.31;6181195;23;20092;-69
2022/10/14 05:51:21;;;;;;;87.10;35.50;;;;;;;-145.18;100.00;46668.22;6181919;23;20384;-71
2022/10/14 05:53:48;;;;;;;76.77;35.33;;;;;;;-145.18;100.00;46666.25;6180798;23;20017;-72
2022/10/14 05:56:13;;;;;;;79.57;33.63;;;;;;;-145.18;100.00;46672.13;6181806;23;20007;-70
2022/10/14 05:58:40;;;;;;;69.03;31.83;;;;;;;-145.18;100.00;46672.13;6181797;23;20083;-70
2022/10/14 06:01:08;;;;;;;82.10;33.43;;;;;;;-145.18;100.00;46666.25;6182531;23;20013;-72
2022/10/14 06:03:33;;;;;;;79.93;34.33;;;;;;;-145.18;100.00;46676.03;6180466;23;20017;-72
2022/10/14 06:06:00;;;;;;;80.77;33.83;;;;;;;-145.18;100.00;46674.06;6182491;23;20072;-70
2022/10/14 06:08:26;;;;;;;82.20;32.77;;;;;;;-145.18;100.00;46668.22;6181663;23;20013;-70
2022/10/14 06:10:52;;;;;;;80.53;34.80;;;;;;;-145.18;100.00;46672.13;6181489;23;20013;-70
2022/10/14 06:13:17;;;;;;;77.83;33.40;;;;;;;-145.18;100.00;46674.06;6182372;23;20013;-71
2022/10/14 06:15:43;;;;;;;88.27;33.67;;;;;;;-145.18;100.00;46670.16;6182085;23;20005;-72
2022/10/14 06:18:08;;;;;;;83.47;35.13;;;;;;;-145.18;100.00;46676.03;6180407;23;20044;-72
2022/10/14 06:20:34;;;;;;;79.70;33.33;;;;;;;-145.18;100.00;46676.03;6182550;23;20012;-72
2022/10/14 06:23:00;;;;;;;86.03;35.30;;;;;;;-145.18;100.00;46672.13;6182040;23;20020;-72
2022/10/14 06:25:25;;;;;;;81.70;34.07;;;;;;;-145.18;100.00;46672.13;6182826;23;20080;-72
2022/10/14 06:27:51;;;;;;;95.03;36.07;;;;;;;-145.18;100.00;46676.03;6181686;23;20102;-72
2022/10/14 06:30:16;;;;;;;87.37;34.90;;;;;;;-145.18;100.00;46674.06;6182973;23;20541;-72
2022/10/14 06:32:42;;;;;;;88.87;36.53;;;;;;;-145.18;100.00;46672.13;6156053;23;20008;-72
2022/10/14 06:35:09;;;;;;;90.90;35.33;;;;;;;-145.18;100.00;46676.03;6182794;23;20020;-72
2022/10/14 06:37:34;;;;;;;96.50;37.10;;;;;;;-145.18;100.00;46672.13;6182307;23;20005;-72
2022/10/14 06:39:59;;;;;;;94.20;36.43;;;;;;;-145.18;100.00;46672.13;6182375;23;20432;-72
2022/10/14 06:42:25;;;;;;;92.87;37.17;;;;;;;-145.18;100.00;46672.13;6182359;23;20462;-70
2022/10/14 06:44:50;;;;;;;93.30;37.60;;;;;;;-145.18;100.00;46674.06;6181957;23;20067;-72
2022/10/14 06:47:16;;;;;;;86.67;36.20;;;;;;;-145.18;100.00;46668.22;6182451;23;20005;-72
2022/10/14 06:49:41;;;;;;;86.77;36.20;;;;;;;-145.18;100.00;46670.16;6181320;23;20088;-72
2022/10/14 06:52:07;;;;;;;85.20;35.13;;;;;;;-145.18;100.00;46676.03;6182406;23;20005;-72
2022/10/14 06:54:32;;;;;;;81.27;35.30;;;;;;;-145.18;100.00;46679.94;6181886;23;20096;-72
2022/10/14 06:56:57;;;;;;;82.10;35.53;;;;;;;-145.18;100.00;46674.06;6180963;23;20044;-72
2022/10/14 06:59:24;;;;;;;86.67;36.20;;;;;;;-145.18;100.00;46677.97;6181912;23;20028;-72
2022/10/14 07:01:49;;;;;;;82.73;37.63;;;;;;;-145.18;100.00;46670.16;6177598;23;20038;-72
2022/10/14 07:04:15;;;;;;;79.77;34.53;;;;;;;-145.18;100.00;46670.16;6154415;23;20073;-72
2022/10/14 07:06:40;;;;;;;75.50;33.20;;;;;;;-145.18;100.00;46679.94;6180859;23;20055;-72
2022/10/14 07:09:06;;;;;;;77.67;34.33;;;;;;;-145.18;100.00;46668.22;6180928;23;20024;-72
2022/10/14 07:11:31;;;;;;;81.00;34.30;;;;;;;-145.18;100.00;46672.13;6181158;23;20397;-72
2022/10/14 07:13:56;;;;;;;72.37;33.10;;;;;;;-145.18;100.00;46679.94;6181136;23;20005;-72
2022/10/14 07:16:22;;;;;;;65.00;32.30;;;;;;;-145.18;100.00;46672.13;6180377;23;20028;-72
2022/10/14 07:18:48;;;;;;;71.73;32.70;;;;;;;-145.18;100.00;46670.16;6179425;23;20494;-72
2022/10/14 07:21:13;;;;;;;64.87;30.67;;;;;;;-145.18;100.00;46679.94;6181975;23;20020;-72
2022/10/14 07:23:39;;;;;;;63.77;30.43;;;;;;;-145.18;100.00;46681.88;6181367;23;20080;-72
2022/10/14 07:26:04;;;;;;;62.47;31.57;;;;;;;-145.18;100.00;46674.06;6181994;23;20055;-72
2022/10/14 07:28:30;;;;;;;58.30;29.00;;;;;;;-145.18;100.00;46676.03;6182039;23;20422;-72
2022/10/14 07:31:01;;;;;;;56.47;29.57;;;;;;;-145.18;100.00;46677.97;6182025;23;20005;-72
2022/10/14 07:33:26;;;;;;;55.77;29.10;;;;;;;-145.18;100.00;46679.94;6181627;23;20037;-72
2022/10/14 07:35:52;;;;;;;56.00;28.20;;;;;;;-145.18;100.00;46672.13;6182483;23;20469;-71
2022/10/14 07:38:17;;;;;;;51.53;28.60;;;;;;;-145.18;100.00;46676.03;6181941;23;20028;-71
2022/10/14 07:40:43;;;;;;;51.67;27.83;;;;;;;-145.18;100.00;46683.84;6182183;23;20088;-71
2022/10/14 07:43:08;;;;;;;49.60;26.90;;;;;;;-145.18;100.00;46674.06;6181903;23;20021;-71
2022/10/14 07:45:35;;;;;;;52.50;27.57;;;;;;;-145.18;100.00;46676.03;6182465;23;20063;-71
2022/10/14 07:48:00;;;;;;;47.07;26.93;;;;;;;-145.18;100.00;46681.88;6181713;23;20471;-71
2022/10/14 07:50:26;;;;;;;44.90;26.57;;;;;;;-145.18;100.00;46677.97;6182325;23;20001;-71
2022/10/14 07:52:51;;;;;;;47.50;26.30;;;;;;;-145.18;100.00;46677.97;6181772;23;20128;-70
2022/10/14 07:55:17;;;;;;;46.23;26.60;;;;;;;-145.18;100.00;46676.03;6181752;23;20009;-71
2022/10/14 07:57:42;;;;;;;48.30;26.97;;;;;;;-145.18;100.00;46677.97;6181825;23;20012;-71
2022/10/14 08:00:08;;;;;;;40.67;25.13;;;;;;;-145.18;100.00;46676.03;6182412;23;20021;-71
2022/10/14 08:02:34;;;;;;;42.73;23.97;;;;;;;-145.18;100.00;46677.97;6181647;23;20020;-71
2022/10/14 08:05:00;;;;;;;45.23;25.70;;;;;;;-145.18;100.00;46674.06;6181543;23;20445;-71
2022/10/14 08:07:25;;;;;;;41.70;23.80;;;;;;;-145.18;100.00;46677.97;6182159;23;20032;-71
2022/10/14 08:09:52;;;;;;;43.60;24.83;;;;;;;-145.18;100.00;46674.06;6181540;23;20032;-71
2022/10/14 08:12:18;;;;;;;38.97;23.17;;;;;;;-145.18;100.00;46674.06;6182111;23;20024;-71
2022/10/14 08:14:44;;;;;;;41.77;25.23;;;;;;;-145.18;100.00;46676.03;6181076;23;20017;-71
2022/10/14 08:17:09;;;;;;;40.87;24.67;;;;;;;-145.18;100.00;46677.97;6181399;23;20016;-71
2022/10/14 08:19:34;;;;;;;37.10;23.70;;;;;;;-145.18;100.00;46679.94;6181533;23;20005;-73
2022/10/14 08:22:00;;;;;;;40.27;24.27;;;;;;;-145.18;100.00;46676.03;6180489;23;20090;-71
2022/10/14 08:24:25;;;;;;;37.67;23.30;;;;;;;-145.18;100.00;46683.84;6182623;23;20010;-71
2022/10/14 08:26:53;;;;;;;35.33;22.73;;;;;;;-145.18;100.00;46674.06;6183497;23;20427;-71
2022/10/14 08:29:21;;;;;;;35.67;21.93;;;;;;;-145.18;100.00;46681.88;6182707;23;19997;-71
2022/10/14 08:31:46;;;;;;;36.43;22.70;;;;;;;-145.18;100.00;46676.03;6183904;23;20074;-71
2022/10/14 08:34:12;;;;;;;36.97;23.33;;;;;;;-145.18;100.00;46679.94;6183210;23;20047;-71
2022/10/14 08:36:37;;;;;;;33.17;21.80;;;;;;;-145.18;100.00;46676.03;6182563;23;20012;-71
2022/10/14 08:39:04;;;;;;;32.63;21.63;;;;;;;-145.18;100.00;46676.03;6180215;23;20411;-71
2022/10/14 08:41:32;;;;;;;33.07;21.80;;;;;;;-145.18;100.00;46676.03;6183387;23;20013;-71
2022/10/14 08:44:19;;;;;;;35.43;22.73;;;;;;;-145.18;100.00;46676.03;6181210;23;20001;-71
2022/10/14 08:46:57;;;;;;;30.07;21.03;;;;;;;-145.18;100.00;46677.97;6181336;23;20051;-72
2022/10/14 08:49:42;;;;;;;30.90;19.83;;;;;;;-145.18;100.00;46677.97;6183233;23;20423;-72
2022/10/14 08:52:20;;;;;;;33.90;20.37;;;;;;;-145.18;100.00;46681.88;6183231;23;20005;-72
2022/10/14 08:54:54;;;;;;;38.47;21.73;;;;;;;-145.18;100.00;46683.84;6182573;23;20004;-72
2022/10/14 08:57:24;;;;;;;32.20;20.73;;;;;;;-145.18;100.00;46679.94;6183610;23;20001;-72
2022/10/14 08:59:50;;;;;;;33.83;21.77;;;;;;;-145.18;100.00;46681.88;6183097;23;20005;-72
2022/10/14 09:02:42;;;;;;;37.63;21.80;;;;;;;-145.18;100.00;46679.94;6183443;23;20064;-72
2022/10/14 09:05:21;;;;;;;33.43;21.23;;;;;;;-145.18;100.00;46691.66;6183254;23;20024;-72
2022/10/14 09:07:48;;;;;;;33.50;21.63;;;;;;;-145.18;100.00;46679.94;6183293;23;20062;-71
2022/10/14 09:10:39;;;;;;;33.73;20.63;;;;;;;-145.18;100.00;46681.88;6183541;23;20085;-71
2022/10/14 09:13:15;;;;;;;31.60;20.27;;;;;;;-145.18;100.00;46685.78;6172774;23;20051;-71
2022/10/14 09:15:44;;;;;;;26.33;16.87;;;;;;;-145.18;100.00;46685.78;6183802;23;20062;-71
2022/10/14 09:18:20;;;;;;;30.70;19.10;;;;;;;-145.18;100.00;46677.97;6183087;23;20009;-71
2022/10/14 09:20:47;;;;;;;25.83;16.93;;;;;;;-145.18;100.00;46679.94;6183021;23;20096;-71
2022/10/14 09:23:18;;;;;;;25.80;17.77;;;;;;;-145.18;100.00;46683.84;6182771;23;20366;-72
2022/10/14 09:25:54;;;;;;;28.03;17.60;;;;;;;-145.18;100.00;46681.88;6183509;23;20330;-72
2022/10/14 09:28:21;;;;;;;26.52;17.55;;;;;;;-145.18;100.00;46677.97;6181109;23;20422;-72
2022/10/14 09:30:47;;;;;;;23.80;16.67;;;;;;;-145.18;100.00;46674.06;6182772;23;20422;-72
2022/10/14 09:33:18;;;;;;;24.77;16.73;;;;;;;-145.18;100.00;46679.94;6183011;23;20043;-72
2022/10/14 09:35:44;;;;;;;24.43;16.53;;;;;;;-145.18;100.00;46676.03;6183186;23;20012;-72
2022/10/14 09:38:11;;;;;;;22.73;16.57;;;;;;;-145.18;100.00;46677.97;6182496;23;20088;-72
2022/10/14 09:40:41;;;;;;;26.77;16.10;;;;;;;-145.18;100.00;46679.94;6182818;23;20009;-72
2022/10/14 09:43:07;;;;;;;24.43;16.80;;;;;;;-145.18;100.00;46679.94;6182302;23;20005;-72
2022/10/14 09:46:09;;;;;;;26.00;16.77;;;;;;;-145.18;100.00;46683.84;6182588;23;20001;-72
2022/10/14 09:48:41;;;;;;;22.13;16.30;;;;;;;-145.18;100.00;46685.78;6182712;23;20008;-72
2022/10/14 09:51:30;;;;;;;22.30;15.47;;;;;;;-145.18;100.00;46691.66;6182320;23;20013;-72
2022/10/14 09:53:58;;;;;;;25.63;16.27;;;;;;;-145.18;100.00;46689.69;6181910;23;20440;-71
2022/10/14 09:56:38;;;;;;;20.13;15.10;;;;;;;-145.18;100.00;46687.75;6182765;23;20001;-71
2022/10/14 09:59:16;;;;;;;21.50;15.13;;;;;;;-145.18;100.00;46685.78;6181903;23;20001;-71
2022/10/14 10:01:49;;;;;;;20.83;14.60;;;;;;;-145.18;100.00;46679.94;6182733;23;20001;-71
2022/10/14 10:04:30;;;;;;;18.40;14.60;;;;;;;-145.18;100.00;46677.97;6181479;23;20024;-71
2022/10/14 10:06:56;;;;;;;20.87;15.10;;;;;;;-145.18;100.00;46683.84;6182357;23;20028;-71
2022/10/14 10:09:21;;;;;;;18.10;14.53;;;;;;;-145.18;100.00;46687.75;6182422;23;20431;-71
2022/10/14 10:11:47;;;;;;;21.23;13.90;;;;;;;-145.18;100.00;46685.78;6182771;23;20009;-71
2022/10/14 10:14:31;;;;;;;20.93;14.67;;;;;;;-145.18;100.00;46683.84;6182002;23;20008;-71
2022/10/14 10:17:06;;;;;;;19.03;14.63;;;;;;;-145.18;100.00;46679.94;6182391;23;20009;-71
2022/10/14 10:19:44;;;;;;;17.77;13.80;;;;;;;-145.18;100.00;46691.66;6182037;23;20031;-71
2022/10/14 10:22:18;;;;;;;19.00;13.43;;;;;;;-145.18;100.00;46695.56;6182401;23;20040;-71
2022/10/14 10:25:11;;;;;;;19.00;14.30;;;;;;;-145.18;100.00;46689.69;6182201;23;20384;-71
2022/10/14 10:27:41;;;;;;;17.07;14.20;;;;;;;-145.18;100.00;46691.66;6179587;23;20497;-71
2022/10/14 10:30:28;;;;;;;17.10;13.17;;;;;;;-145.18;100.00;46687.75;6182333;23;20109;-72
2022/10/14 10:33:32;;;;;;;17.27;13.30;;;;;;;-145.18;100.00;46689.69;6182282;23;20004;-71
2022/10/14 10:36:19;;;;;;;18.17;13.67;;;;;;;-145.18;100.00;46691.66;6180982;23;20008;-71
2022/10/14 10:39:04;;;;;;;16.63;13.40;;;;;;;-145.18;100.00;46689.69;6181945;23;20005;-71
2022/10/14 10:42:07;;;;;;;15.23;13.00;;;;;;;-145.18;100.00;46691.66;6182448;23;20108;-71
2022/10/14 10:44:57;;;;;;;15.70;12.63;;;;;;;-145.18;100.00;46687.75;6181716;23;20012;-71
2022/10/14 10:47:48;;;;;;;19.47;14.47;;;;;;;-145.18;100.00;46693.59;6182381;23;20069;-70
2022/10/14 10:50:42;;;;;;;20.03;14.93;;;;;;;-145.18;100.00;46689.69;6177041;23;20005;-71
2022/10/14 10:53:23;;;;;;;20.47;14.27;;;;;;;-145.18;100.00;46691.66;6181408;23;20410;-71
2022/10/14 10:56:01;;;;;;;19.70;15.07;;;;;;;-145.18;100.00;46685.78;6182014;23;20386;-71
2022/10/14 10:58:39;;;;;;;18.50;14.57;;;;;;;-145.18;100.00;46685.78;6181497;23;20063;-71
2022/10/14 11:01:30;;;;;;;20.70;15.23;;;;;;;-145.18;100.00;46685.78;6181518;23;20008;-71
2022/10/14 11:04:09;;;;;;;19.87;15.23;;;;;;;-145.18;100.00;46689.69;6181075;23;20016;-70
2022/10/14 11:13:03;;;;;;;21.97;15.53;;;;;;;-145.18;100.00;46687.75;6180782;23;20095;-70